createdAt,value
2017-10-25T00:00:44.950Z,21.08
2017-10-25T00:01:47.574Z,16.15
2017-10-25T00:02:50.171Z,23.50
2017-10-25T00:03:53.610Z,20.08
2017-10-25T00:04:56.879Z,17.75
2017-10-25T00:05:59.926Z,21.33
2017-10-25T00:07:02.407Z,20.00
2017-10-25T00:08:05.159Z,18.85
2017-10-25T00:09:08.242Z,17.02
2017-10-25T00:10:10.845Z,19.25
2017-10-25T00:11:13.363Z,22.55
2017-10-25T00:12:17.267Z,16.00
2017-10-25T00:13:20.488Z,16.35
2017-10-25T00:14:23.220Z,16.45
2017-10-25T00:15:25.721Z,26.98
2017-10-25T00:16:28.311Z,16.73
2017-10-25T00:17:31.031Z,19.75
2017-10-25T00:18:33.520Z,18.58
2017-10-25T00:19:36.090Z,17.05
2017-10-25T00:20:38.640Z,15.43
2017-10-25T00:21:41.378Z,20.20
2017-10-25T00:22:44.874Z,17.48
2017-10-25T00:23:49.092Z,17.98
2017-10-25T00:24:51.605Z,17.85
2017-10-25T00:25:54.591Z,17.55
2017-10-25T00:26:57.148Z,20.70
2017-10-25T00:27:59.870Z,16.77
2017-10-25T00:29:02.484Z,19.50
2017-10-25T00:30:05.160Z,16.00
2017-10-25T00:31:09.012Z,17.77
2017-10-25T00:32:11.772Z,17.30
2017-10-25T00:33:14.325Z,21.62
2017-10-25T00:34:17.728Z,19.42
2017-10-25T00:35:20.888Z,20.83
2017-10-25T00:36:30.639Z,19.23
2017-10-25T00:37:35.225Z,19.87
2017-10-25T00:38:42.169Z,22.27
2017-10-25T00:39:45.735Z,19.92
2017-10-25T00:40:53.103Z,21.60
2017-10-25T00:41:56.136Z,24.98
2017-10-25T00:42:58.717Z,17.73
2017-10-25T00:44:02.885Z,18.45
2017-10-25T00:45:08.245Z,19.85
2017-10-25T00:46:12.138Z,16.73
2017-10-25T00:47:17.214Z,19.27
2017-10-25T00:48:23.115Z,17.62
2017-10-25T00:49:30.048Z,21.70
2017-10-25T00:50:32.555Z,17.80
2017-10-25T00:51:37.666Z,21.05
2017-10-25T00:52:40.925Z,18.95
2017-10-25T00:53:44.477Z,17.12
2017-10-25T00:54:47.002Z,23.70
2017-10-25T00:55:51.534Z,22.30
2017-10-25T00:56:56.210Z,18.40
2017-10-25T00:57:59.967Z,19.15
2017-10-25T00:59:04.582Z,20.25
2017-10-25T01:00:24.628Z,21.62
2017-10-25T01:01:28.535Z,19.37
2017-10-25T01:02:34.575Z,20.98
2017-10-25T01:03:37.922Z,16.95
2017-10-25T01:04:40.816Z,19.10
2017-10-25T01:05:43.819Z,19.80
2017-10-25T01:06:48.121Z,19.80
2017-10-25T01:07:52.503Z,18.10
2017-10-25T01:08:59.316Z,18.62
2017-10-25T01:10:02.920Z,27.17
2017-10-25T01:11:08.059Z,18.00
2017-10-25T01:12:10.675Z,18.42
2017-10-25T01:13:13.509Z,16.98
2017-10-25T01:14:16.611Z,19.40
2017-10-25T01:15:21.547Z,19.42
2017-10-25T01:16:25.613Z,21.12
2017-10-25T01:17:32.306Z,20.80
2017-10-25T01:18:36.577Z,17.73
2017-10-25T01:19:40.702Z,20.83
2017-10-25T01:20:46.570Z,18.10
2017-10-25T01:21:50.418Z,17.30
2017-10-25T01:22:54.406Z,20.62
2017-10-25T01:23:59.292Z,22.73
2017-10-25T01:25:05.429Z,15.63
2017-10-25T01:26:10.236Z,17.45
2017-10-25T01:27:13.213Z,20.05
2017-10-25T01:28:17.203Z,17.25
2017-10-25T01:29:20.813Z,22.23
2017-10-25T01:30:24.258Z,17.40
2017-10-25T01:31:27.363Z,19.48
2017-10-25T01:32:31.015Z,16.08
2017-10-25T01:33:33.553Z,22.65
2017-10-25T01:34:36.497Z,16.90
2017-10-25T01:35:39.239Z,16.52
2017-10-25T01:36:42.510Z,14.43
2017-10-25T01:37:45.167Z,15.70
2017-10-25T01:38:47.691Z,15.60
2017-10-25T01:39:50.215Z,14.73
2017-10-25T01:40:53.254Z,12.02
2017-10-25T01:41:55.849Z,14.95
2017-10-25T01:42:58.404Z,13.07
2017-10-25T01:44:00.890Z,13.62
2017-10-25T01:45:05.018Z,11.88
2017-10-25T01:46:08.554Z,14.50
2017-10-25T01:47:11.030Z,13.10
2017-10-25T01:48:13.725Z,11.85
2017-10-25T01:49:16.983Z,13.55
2017-10-25T01:50:19.635Z,9.80
2017-10-25T01:51:22.126Z,12.88
2017-10-25T01:52:24.667Z,9.23
2017-10-25T01:53:27.314Z,9.57
2017-10-25T01:54:30.012Z,11.38
2017-10-25T01:55:32.504Z,9.55
2017-10-25T01:56:35.891Z,13.23
2017-10-25T01:57:38.404Z,11.73
2017-10-25T01:58:41.116Z,10.13
2017-10-25T01:59:43.604Z,9.68
2017-10-25T02:00:47.875Z,8.02
2017-10-25T02:01:50.359Z,10.45
2017-10-25T02:02:52.924Z,7.53
2017-10-25T02:03:55.538Z,10.15
2017-10-25T02:04:58.244Z,10.10
2017-10-25T02:06:00.750Z,11.15
2017-10-25T02:07:04.195Z,9.27
2017-10-25T02:08:06.776Z,7.30
2017-10-25T02:09:09.539Z,11.98
2017-10-25T02:10:12.794Z,10.15
2017-10-25T02:11:15.564Z,14.35
2017-10-25T02:12:18.058Z,8.07
2017-10-25T02:13:20.535Z,10.80
2017-10-25T02:14:22.999Z,8.20
2017-10-25T02:15:25.603Z,13.20
2017-10-25T02:16:28.868Z,12.37
2017-10-25T02:17:31.503Z,8.57
2017-10-25T02:18:33.987Z,10.95
2017-10-25T02:19:36.536Z,9.15
2017-10-25T02:20:39.092Z,10.50
2017-10-25T02:21:41.641Z,12.40
2017-10-25T02:22:44.130Z,9.98
2017-10-25T02:23:46.908Z,11.40
2017-10-25T02:24:49.424Z,12.43
2017-10-25T02:25:52.966Z,16.70
2017-10-25T02:26:56.441Z,12.07
2017-10-25T02:27:59.153Z,12.80
2017-10-25T02:29:01.969Z,22.08
2017-10-25T02:30:04.515Z,13.00
2017-10-25T02:31:08.559Z,13.15
2017-10-25T02:32:11.521Z,14.75
2017-10-25T02:33:14.002Z,15.23
2017-10-25T02:34:16.671Z,16.15
2017-10-25T02:35:19.200Z,17.02
2017-10-25T02:36:21.771Z,15.45
2017-10-25T02:37:24.261Z,14.35
2017-10-25T02:38:26.786Z,15.95
2017-10-25T02:39:30.046Z,14.18
2017-10-25T02:40:32.691Z,13.70
2017-10-25T02:41:35.191Z,21.20
2017-10-25T02:42:37.721Z,14.13
2017-10-25T02:43:40.222Z,20.27
2017-10-25T02:44:44.057Z,18.27
2017-10-25T02:45:46.598Z,27.98
2017-10-25T02:46:50.014Z,21.30
2017-10-25T02:47:52.520Z,20.20
2017-10-25T02:48:55.322Z,20.35
2017-10-25T02:49:58.592Z,22.48
2017-10-25T02:51:01.239Z,22.25
2017-10-25T02:52:03.725Z,24.12
2017-10-25T02:53:07.216Z,23.95
2017-10-25T02:54:09.814Z,20.88
2017-10-25T02:55:12.587Z,17.98
2017-10-25T02:56:15.162Z,23.95
2017-10-25T02:57:17.902Z,29.33
2017-10-25T02:58:20.413Z,23.33
2017-10-25T02:59:22.979Z,23.27
2017-10-25T03:00:25.521Z,22.92
2017-10-25T03:01:28.266Z,21.12
2017-10-25T03:02:30.753Z,27.42
2017-10-25T03:03:34.228Z,22.20
2017-10-25T03:04:37.474Z,32.00
2017-10-25T03:05:40.207Z,24.37
2017-10-25T03:06:42.747Z,27.87
2017-10-25T03:07:45.488Z,23.12
2017-10-25T03:08:48.008Z,34.78
2017-10-25T03:09:50.516Z,25.08
2017-10-25T03:10:53.212Z,24.70
2017-10-25T03:11:56.958Z,28.30
2017-10-25T03:12:59.449Z,21.70
2017-10-25T03:14:02.174Z,25.30
2017-10-25T03:15:04.672Z,23.02
2017-10-25T03:16:07.179Z,23.73
2017-10-25T03:17:10.436Z,24.52
2017-10-25T03:18:16.157Z,30.90
2017-10-25T03:19:18.699Z,25.85
2017-10-25T03:20:21.192Z,24.63
2017-10-25T03:21:23.696Z,30.77
2017-10-25T03:22:27.768Z,31.87
2017-10-25T03:23:31.021Z,29.00
2017-10-25T03:24:33.727Z,34.45
2017-10-25T03:25:36.608Z,25.88
2017-10-25T03:26:42.671Z,30.20
2017-10-25T03:27:46.326Z,28.87
2017-10-25T03:28:50.775Z,24.52
2017-10-25T03:29:53.571Z,23.27
2017-10-25T03:30:56.765Z,33.47
2017-10-25T03:31:59.254Z,30.25
2017-10-25T03:33:03.124Z,28.35
2017-10-25T03:34:05.621Z,25.00
2017-10-25T03:35:08.956Z,26.02
2017-10-25T03:36:12.760Z,29.95
2017-10-25T03:37:17.737Z,31.10
2017-10-25T03:38:20.544Z,35.60
2017-10-25T03:39:24.057Z,29.73
2017-10-25T03:40:26.555Z,27.42
2017-10-25T03:41:29.031Z,26.60
2017-10-25T03:42:31.552Z,35.75
2017-10-25T03:43:34.299Z,29.65
2017-10-25T03:44:36.857Z,32.83
2017-10-25T03:45:40.339Z,30.17
2017-10-25T03:46:42.828Z,29.58
2017-10-25T03:47:46.272Z,37.35
2017-10-25T03:48:48.834Z,32.88
2017-10-25T03:49:51.348Z,33.25
2017-10-25T03:50:54.599Z,30.17
2017-10-25T03:51:57.274Z,32.88
2017-10-25T03:52:59.762Z,41.28
2017-10-25T03:54:05.117Z,36.58
2017-10-25T03:55:07.713Z,35.70
2017-10-25T03:56:10.725Z,34.00
2017-10-25T03:57:14.180Z,33.10
2017-10-25T03:58:16.675Z,37.20
2017-10-25T03:59:19.183Z,36.08
2017-10-25T04:00:22.925Z,37.42
2017-10-25T04:01:25.409Z,35.22
2017-10-25T04:02:28.899Z,34.85
2017-10-25T04:03:32.275Z,43.83
2017-10-25T04:04:35.763Z,32.20
2017-10-25T04:05:38.285Z,40.83
2017-10-25T04:06:42.122Z,38.33
2017-10-25T04:07:44.621Z,39.13
2017-10-25T04:08:50.087Z,40.20
2017-10-25T04:09:53.448Z,39.90
2017-10-25T04:10:56.220Z,37.90
2017-10-25T04:11:58.797Z,38.25
2017-10-25T04:13:01.404Z,40.35
2017-10-25T04:14:03.893Z,38.47
2017-10-25T04:15:07.370Z,44.53
2017-10-25T04:16:09.833Z,41.92
2017-10-25T04:17:14.106Z,38.83
2017-10-25T04:18:16.647Z,42.70
2017-10-25T04:19:19.121Z,38.88
2017-10-25T04:20:25.828Z,45.03
2017-10-25T04:21:28.404Z,41.42
2017-10-25T04:22:31.892Z,44.55
2017-10-25T04:23:34.579Z,39.42
2017-10-25T04:24:37.879Z,42.17
2017-10-25T04:25:41.129Z,41.47
2017-10-25T04:26:43.779Z,42.25
2017-10-25T04:27:46.391Z,43.35
2017-10-25T04:28:49.795Z,40.72
2017-10-25T04:29:52.295Z,48.17
2017-10-25T04:30:54.932Z,41.37
2017-10-25T04:31:57.416Z,41.67
2017-10-25T04:33:00.098Z,35.70
2017-10-25T04:34:02.611Z,39.70
2017-10-25T04:35:05.452Z,35.58
2017-10-25T04:36:07.948Z,35.00
2017-10-25T04:37:11.433Z,37.17
2017-10-25T04:38:14.691Z,36.47
2017-10-25T04:39:17.202Z,38.72
2017-10-25T04:40:19.776Z,36.90
2017-10-25T04:41:23.295Z,35.13
2017-10-25T04:42:25.840Z,38.38
2017-10-25T04:43:28.336Z,36.28
2017-10-25T04:44:30.826Z,28.80
2017-10-25T04:45:33.382Z,35.45
2017-10-25T04:46:35.866Z,32.08
2017-10-25T04:47:39.366Z,33.13
2017-10-25T04:48:42.995Z,34.28
2017-10-25T04:49:45.603Z,32.20
2017-10-25T04:50:48.088Z,38.05
2017-10-25T04:51:51.837Z,32.00
2017-10-25T04:52:54.363Z,33.83
2017-10-25T04:53:57.590Z,30.50
2017-10-25T04:55:00.116Z,36.33
2017-10-25T04:56:02.886Z,33.53
2017-10-25T04:57:05.430Z,33.17
2017-10-25T04:58:08.815Z,31.90
2017-10-25T04:59:12.126Z,26.70
2017-10-25T05:00:14.793Z,27.42
2017-10-25T05:01:17.304Z,26.90
2017-10-25T05:02:20.675Z,28.17
2017-10-25T05:03:23.181Z,30.73
2017-10-25T05:04:26.647Z,36.33
2017-10-25T05:05:29.174Z,28.77
2017-10-25T05:06:31.758Z,31.50
2017-10-25T05:07:34.316Z,33.13
2017-10-25T05:08:36.996Z,26.30
2017-10-25T05:09:39.514Z,25.77
2017-10-25T05:10:42.038Z,25.40
2017-10-25T05:11:44.532Z,27.35
2017-10-25T05:12:47.987Z,22.17
2017-10-25T05:13:50.472Z,25.58
2017-10-25T05:14:54.720Z,26.65
2017-10-25T05:15:59.167Z,25.33
2017-10-25T05:17:01.747Z,23.00
2017-10-25T05:18:06.312Z,21.48
2017-10-25T05:19:10.121Z,26.70
2017-10-25T05:20:18.200Z,25.25
2017-10-25T05:21:24.747Z,22.83
2017-10-25T05:22:28.371Z,24.55
2017-10-25T05:23:32.205Z,22.13
2017-10-25T05:24:39.879Z,20.25
2017-10-25T05:25:42.459Z,20.33
2017-10-25T05:26:46.258Z,19.08
2017-10-25T05:27:49.587Z,23.67
2017-10-25T05:28:52.096Z,24.55
2017-10-25T05:29:54.889Z,22.13
2017-10-25T05:31:02.012Z,21.98
2017-10-25T05:32:04.919Z,21.62
2017-10-25T05:33:07.944Z,21.80
2017-10-25T05:34:12.746Z,16.67
2017-10-25T05:35:16.645Z,17.17
2017-10-25T05:36:21.514Z,19.73
2017-10-25T05:37:25.623Z,19.62
2017-10-25T05:38:28.372Z,17.17
2017-10-25T05:39:30.938Z,18.00
2017-10-25T05:40:33.915Z,15.68
2017-10-25T05:41:36.399Z,16.02
2017-10-25T05:42:41.901Z,21.92
2017-10-25T05:43:44.398Z,14.77
2017-10-25T05:44:47.171Z,18.08
2017-10-25T05:45:49.663Z,20.37
2017-10-25T05:46:53.270Z,23.42
2017-10-25T05:47:55.802Z,23.40
2017-10-25T05:49:15.191Z,17.67
2017-10-25T05:50:17.717Z,21.65
2017-10-25T05:51:20.355Z,16.95
2017-10-25T05:52:24.545Z,20.25
2017-10-25T05:53:29.946Z,17.87
2017-10-25T05:54:34.047Z,17.23
2017-10-25T05:55:37.280Z,14.20
2017-10-25T05:56:40.575Z,21.15
2017-10-25T05:57:43.095Z,20.00
2017-10-25T05:58:47.432Z,17.23
2017-10-25T05:59:55.951Z,16.00
2017-10-25T06:01:02.785Z,14.57
2017-10-25T06:02:06.616Z,15.57
2017-10-25T06:03:09.474Z,15.50
2017-10-25T06:04:13.200Z,14.25
2017-10-25T06:05:15.775Z,22.67
2017-10-25T06:06:19.218Z,15.65
2017-10-25T06:07:22.967Z,15.73
2017-10-25T06:08:26.468Z,15.52
2017-10-25T06:09:28.974Z,15.80
2017-10-25T06:10:31.677Z,19.27
2017-10-25T06:11:34.432Z,15.85
2017-10-25T06:12:38.101Z,15.55
2017-10-25T06:13:41.586Z,18.73
2017-10-25T06:14:46.240Z,21.92
2017-10-25T06:15:49.427Z,15.95
2017-10-25T06:16:53.872Z,16.80
2017-10-25T06:17:57.106Z,15.60
2017-10-25T06:18:59.625Z,20.80
2017-10-25T06:20:03.138Z,17.67
2017-10-25T06:21:06.416Z,14.32
2017-10-25T06:22:10.591Z,18.87
2017-10-25T06:23:13.125Z,15.93
2017-10-25T06:24:18.151Z,16.83
2017-10-25T06:25:25.314Z,13.85
2017-10-25T06:26:29.751Z,13.45
2017-10-25T06:27:34.437Z,14.52
2017-10-25T06:28:39.365Z,15.90
2017-10-25T06:29:42.905Z,21.23
2017-10-25T06:30:47.671Z,16.80
2017-10-25T06:31:51.082Z,13.07
2017-10-25T06:32:54.568Z,20.90
2017-10-25T06:33:58.335Z,21.27
2017-10-25T06:35:03.574Z,15.57
2017-10-25T06:36:06.065Z,15.43
2017-10-25T06:37:08.604Z,15.63
2017-10-25T06:38:11.089Z,20.95
2017-10-25T06:39:13.582Z,25.35
2017-10-25T06:40:16.099Z,18.83
2017-10-25T06:41:18.624Z,16.42
2017-10-25T06:42:21.201Z,13.70
2017-10-25T06:43:24.564Z,14.00
2017-10-25T06:44:27.065Z,15.88
2017-10-25T06:45:29.621Z,12.57
2017-10-25T06:46:32.884Z,12.68
2017-10-25T06:47:35.547Z,16.48
2017-10-25T06:48:38.037Z,11.05
2017-10-25T06:51:11.297Z,18.17
2017-10-25T06:52:13.984Z,11.52
2017-10-25T06:53:26.652Z,15.82
2017-10-25T06:54:30.130Z,12.85
2017-10-25T06:55:33.043Z,16.35
2017-10-25T06:56:42.535Z,10.93
2017-10-25T06:57:45.706Z,11.93
2017-10-25T06:58:49.481Z,11.55
2017-10-25T06:59:52.769Z,13.13
2017-10-25T07:00:55.850Z,18.15
2017-10-25T07:01:59.107Z,17.33
2017-10-25T07:03:01.750Z,11.90
2017-10-25T07:04:04.371Z,12.37
2017-10-25T07:05:08.091Z,8.35
2017-10-25T07:06:11.204Z,9.10
2017-10-25T07:07:15.957Z,10.15
2017-10-25T07:08:19.774Z,10.85
2017-10-25T07:09:28.188Z,13.80
2017-10-25T07:10:32.692Z,8.32
2017-10-25T07:11:36.157Z,12.18
2017-10-25T07:12:41.042Z,11.65
2017-10-25T07:13:43.828Z,10.15
2017-10-25T07:14:46.965Z,12.68
2017-10-25T07:15:54.039Z,11.43
2017-10-25T07:16:58.662Z,10.10
2017-10-25T07:18:03.888Z,12.07
2017-10-25T07:19:07.568Z,14.90
2017-10-25T07:20:10.270Z,12.40
2017-10-25T07:21:12.748Z,11.68
2017-10-25T07:22:15.337Z,11.88
2017-10-25T07:23:18.616Z,10.52
2017-10-25T07:24:21.271Z,13.25
2017-10-25T07:25:24.809Z,7.75
2017-10-25T07:26:27.540Z,11.57
2017-10-25T07:27:30.048Z,12.57
2017-10-25T07:28:32.598Z,11.35
2017-10-25T07:29:39.828Z,12.85
2017-10-25T07:30:42.565Z,10.65
2017-10-25T07:31:45.068Z,8.93
2017-10-25T07:32:47.675Z,10.93
2017-10-25T07:33:50.948Z,16.98
2017-10-25T07:34:54.411Z,10.23
2017-10-25T07:35:56.887Z,9.52
2017-10-25T07:36:59.501Z,12.45
2017-10-25T07:38:02.003Z,16.58
2017-10-25T07:39:04.548Z,9.40
2017-10-25T07:40:07.742Z,11.73
2017-10-25T07:41:11.815Z,14.45
2017-10-25T07:42:15.032Z,15.13
2017-10-25T07:43:18.241Z,9.32
2017-10-25T07:44:24.788Z,15.82
2017-10-25T07:45:27.561Z,9.45
2017-10-25T07:46:34.763Z,16.58
2017-10-25T07:47:39.650Z,7.90
2017-10-25T07:48:47.006Z,10.73
2017-10-25T07:49:50.776Z,9.35
2017-10-25T07:50:54.688Z,11.40
2017-10-25T07:52:01.416Z,12.02
2017-10-25T07:53:07.062Z,8.98
2017-10-25T07:54:09.903Z,12.88
2017-10-25T07:55:12.429Z,9.18
2017-10-25T07:56:15.477Z,9.15
2017-10-25T07:57:18.737Z,11.65
2017-10-25T07:58:21.437Z,11.40
2017-10-25T07:59:24.680Z,7.70
2017-10-25T08:00:27.348Z,10.50
2017-10-25T08:01:29.846Z,9.27
2017-10-25T08:02:33.304Z,8.00
2017-10-25T08:03:35.834Z,10.43
2017-10-25T08:04:38.351Z,11.38
2017-10-25T08:05:40.965Z,17.58
2017-10-25T08:06:43.669Z,11.93
2017-10-25T08:07:46.151Z,7.37
2017-10-25T08:08:48.693Z,9.55
2017-10-25T08:09:51.175Z,10.73
2017-10-25T08:10:53.740Z,10.90
2017-10-25T08:11:56.267Z,8.98
2017-10-25T08:12:58.916Z,10.30
2017-10-25T08:14:02.265Z,12.10
2017-10-25T08:15:04.842Z,5.80
2017-10-25T08:16:07.408Z,11.15
2017-10-25T08:17:12.873Z,7.18
2017-10-25T08:18:15.615Z,7.57
2017-10-25T08:19:18.538Z,7.22
2017-10-25T08:20:22.963Z,7.68
2017-10-25T08:22:32.746Z,5.93
2017-10-25T08:23:39.516Z,7.35
2017-10-25T08:24:43.821Z,7.78
2017-10-25T08:25:47.728Z,5.75
2017-10-25T08:26:51.448Z,6.40
2017-10-25T08:27:58.208Z,13.23
2017-10-25T08:29:01.873Z,9.48
2017-10-25T08:30:05.338Z,10.95
2017-10-25T08:31:08.150Z,10.50
2017-10-25T08:32:13.900Z,7.28
2017-10-25T08:33:18.755Z,7.93
2017-10-25T08:34:21.570Z,9.02
2017-10-25T08:35:25.400Z,8.70
2017-10-25T08:36:28.608Z,11.23
2017-10-25T08:37:32.325Z,10.60
2017-10-25T08:38:36.548Z,8.85
2017-10-25T08:39:39.085Z,8.40
2017-10-25T08:40:41.667Z,6.93
2017-10-25T08:41:45.072Z,8.82
2017-10-25T08:42:52.981Z,9.68
2017-10-25T08:43:59.536Z,10.63
2017-10-25T08:45:03.175Z,9.25
2017-10-25T08:46:07.709Z,8.77
2017-10-25T08:47:11.741Z,8.75
2017-10-25T08:48:15.706Z,11.12
2017-10-25T08:49:19.011Z,6.72
2017-10-25T08:50:25.018Z,9.50
2017-10-25T08:51:29.183Z,16.30
2017-10-25T08:52:32.423Z,9.68
2017-10-25T08:53:35.219Z,10.48
2017-10-25T08:54:40.396Z,9.80
2017-10-25T08:55:43.015Z,7.62
2017-10-25T08:56:45.526Z,6.82
2017-10-25T08:57:48.062Z,6.07
2017-10-25T08:58:51.330Z,7.28
2017-10-25T08:59:54.019Z,6.37
2017-10-25T09:00:56.539Z,8.73
2017-10-25T09:01:59.081Z,10.88
2017-10-25T09:03:01.588Z,9.20
2017-10-25T09:04:04.263Z,7.30
2017-10-25T09:05:06.751Z,8.57
2017-10-25T09:06:10.095Z,11.23
2017-10-25T09:07:12.781Z,6.55
2017-10-25T09:08:15.500Z,7.18
2017-10-25T09:09:18.006Z,8.55
2017-10-25T09:10:20.684Z,11.15
2017-10-25T09:11:23.210Z,8.07
2017-10-25T09:12:32.549Z,8.20
2017-10-25T09:13:36.352Z,9.68
2017-10-25T09:14:39.466Z,11.38
2017-10-25T09:15:42.182Z,10.45
2017-10-25T09:16:44.698Z,9.80
2017-10-25T09:17:47.377Z,8.50
2017-10-25T09:18:50.017Z,8.15
2017-10-25T09:19:52.491Z,7.53
2017-10-25T09:20:55.050Z,11.00
2017-10-25T09:22:00.020Z,11.77
2017-10-25T09:23:03.988Z,9.65
2017-10-25T09:24:06.495Z,9.18
2017-10-25T09:25:09.136Z,12.25
2017-10-25T09:26:12.416Z,9.23
2017-10-25T09:27:15.084Z,7.35
2017-10-25T09:28:17.635Z,7.00
2017-10-25T09:29:20.164Z,8.25
2017-10-25T09:30:23.269Z,7.25
2017-10-25T09:31:26.675Z,9.32
2017-10-25T09:32:29.186Z,9.75
2017-10-25T09:33:31.708Z,9.90
2017-10-25T09:34:34.295Z,10.00
2017-10-25T09:35:37.813Z,5.37
2017-10-25T09:36:40.350Z,8.13
2017-10-25T09:37:43.787Z,68.65
2017-10-25T09:38:46.357Z,8.68
2017-10-25T09:39:48.961Z,7.35
2017-10-25T09:40:51.495Z,9.95
2017-10-25T09:41:54.955Z,5.80
2017-10-25T09:42:57.578Z,8.57
2017-10-25T09:44:00.664Z,12.32
2017-10-25T09:45:03.151Z,6.12
2017-10-25T09:46:07.137Z,7.50
2017-10-25T09:47:10.386Z,8.65
2017-10-25T09:48:13.059Z,12.57
2017-10-25T09:49:16.024Z,7.87
2017-10-25T09:50:20.048Z,6.90
2017-10-25T09:51:22.738Z,9.95
2017-10-25T09:52:26.722Z,8.98
2017-10-25T09:53:29.250Z,7.43
2017-10-25T09:54:31.870Z,9.68
2017-10-25T09:55:35.180Z,8.05
2017-10-25T09:56:37.993Z,5.50
2017-10-25T09:57:41.251Z,5.90
2017-10-25T09:58:43.764Z,6.97
2017-10-25T09:59:46.801Z,9.50
2017-10-25T10:00:50.414Z,7.50
2017-10-25T10:01:52.941Z,9.15
2017-10-25T10:02:56.328Z,12.65
2017-10-25T10:04:03.009Z,8.45
2017-10-25T10:05:06.886Z,7.90
2017-10-25T10:06:10.556Z,10.95
2017-10-25T10:07:15.065Z,10.18
2017-10-25T10:08:22.165Z,10.10
2017-10-25T10:09:28.739Z,10.10
2017-10-25T10:10:31.578Z,11.05
2017-10-25T10:11:39.543Z,8.75
2017-10-25T10:12:47.807Z,7.00
2017-10-25T10:13:51.367Z,7.25
2017-10-25T10:14:54.622Z,11.18
2017-10-25T10:15:57.841Z,9.13
2017-10-25T10:17:01.870Z,7.82
2017-10-25T10:18:04.484Z,7.18
2017-10-25T10:19:07.101Z,7.97
2017-10-25T10:20:10.683Z,11.40
2017-10-25T10:21:13.896Z,11.93
2017-10-25T10:22:17.079Z,9.30
2017-10-25T10:23:20.096Z,11.27
2017-10-25T10:24:23.032Z,11.85
2017-10-25T10:25:26.665Z,14.23
2017-10-25T10:26:30.169Z,7.43
2017-10-25T10:27:33.517Z,14.15
2017-10-25T10:28:36.175Z,12.48
2017-10-25T10:29:38.733Z,8.23
2017-10-25T10:30:41.957Z,11.60
2017-10-25T10:31:45.392Z,8.68
2017-10-25T10:32:49.043Z,9.13
2017-10-25T10:33:54.766Z,11.15
2017-10-25T10:34:58.736Z,7.60
2017-10-25T10:36:05.970Z,8.55
2017-10-25T10:37:08.787Z,11.15
2017-10-25T10:38:12.450Z,10.35
2017-10-25T10:39:15.042Z,14.25
2017-10-25T10:40:17.584Z,7.90
2017-10-25T10:41:21.013Z,10.73
2017-10-25T10:42:23.716Z,10.98
2017-10-25T10:43:26.307Z,9.82
2017-10-25T10:44:29.764Z,12.35
2017-10-25T10:45:35.516Z,13.52
2017-10-25T10:46:38.360Z,14.57
2017-10-25T10:47:41.426Z,6.65
2017-10-25T10:48:44.282Z,12.80
2017-10-25T10:49:51.926Z,9.85
2017-10-25T10:50:54.482Z,11.15
2017-10-25T10:51:57.292Z,10.48
2017-10-25T10:53:00.669Z,12.70
2017-10-25T10:54:03.448Z,11.20
2017-10-25T10:55:06.748Z,9.82
2017-10-25T10:56:10.300Z,10.05
2017-10-25T10:57:12.998Z,9.70
2017-10-25T10:58:16.784Z,10.85
2017-10-25T10:59:20.162Z,8.35
2017-10-25T11:00:23.015Z,10.13
2017-10-25T11:01:25.705Z,11.38
2017-10-25T11:02:28.503Z,8.13
2017-10-25T11:03:32.168Z,9.20
2017-10-25T11:04:34.903Z,10.35
2017-10-25T11:05:37.664Z,11.40
2017-10-25T11:06:40.664Z,7.15
2017-10-25T11:07:43.683Z,10.43
2017-10-25T11:08:47.555Z,7.65
2017-10-25T11:09:50.190Z,8.13
2017-10-25T11:10:52.966Z,7.57
2017-10-25T11:11:55.459Z,9.90
2017-10-25T11:12:58.715Z,12.65
2017-10-25T11:14:01.272Z,11.00
2017-10-25T11:15:04.041Z,9.82
2017-10-25T11:16:06.620Z,9.95
2017-10-25T11:17:09.222Z,8.10
2017-10-25T11:18:11.752Z,9.40
2017-10-25T11:19:14.614Z,11.90
2017-10-25T11:20:17.094Z,15.93
2017-10-25T11:21:20.215Z,11.55
2017-10-25T11:22:31.268Z,12.93
2017-10-25T11:23:34.135Z,10.15
2017-10-25T11:24:38.384Z,9.23
2017-10-25T11:25:41.483Z,11.48
2017-10-25T11:26:45.246Z,16.85
2017-10-25T11:27:52.111Z,13.32
2017-10-25T11:28:55.652Z,12.13
2017-10-25T11:29:58.219Z,13.77
2017-10-25T11:31:06.621Z,10.13
2017-10-25T11:32:10.007Z,14.85
2017-10-25T11:33:14.478Z,10.63
2017-10-25T11:34:19.846Z,13.35
2017-10-25T11:35:24.035Z,11.77
2017-10-25T11:36:27.038Z,19.87
2017-10-25T11:37:30.530Z,21.60
2017-10-25T11:38:33.077Z,11.30
2017-10-25T11:39:35.781Z,13.77
2017-10-25T11:40:38.305Z,14.55
2017-10-25T11:41:42.488Z,13.57
2017-10-25T11:42:45.454Z,12.23
2017-10-25T11:43:49.605Z,11.07
2017-10-25T11:44:52.232Z,13.68
2017-10-25T11:45:55.335Z,13.02
2017-10-25T11:46:58.639Z,15.52
2017-10-25T11:48:02.764Z,13.57
2017-10-25T11:49:05.253Z,13.07
2017-10-25T11:50:08.676Z,10.20
2017-10-25T11:51:12.575Z,11.73
2017-10-25T11:52:17.311Z,22.77
2017-10-25T11:53:21.038Z,14.45
2017-10-25T11:54:25.358Z,12.27
2017-10-25T11:55:29.807Z,14.70
2017-10-25T11:56:39.251Z,12.55
2017-10-25T11:57:43.676Z,14.30
2017-10-25T11:58:47.401Z,9.18
2017-10-25T11:59:51.201Z,11.63
2017-10-25T12:00:56.515Z,10.43
2017-10-25T12:02:00.157Z,8.80
2017-10-25T12:03:03.449Z,11.25
2017-10-25T12:04:06.751Z,10.82
2017-10-25T12:05:10.280Z,9.10
2017-10-25T12:06:13.069Z,12.27
2017-10-25T12:07:17.244Z,11.98
2017-10-25T12:08:21.382Z,12.13
2017-10-25T12:09:24.788Z,12.70
2017-10-25T12:10:27.558Z,9.18
2017-10-25T12:11:30.619Z,11.07
2017-10-25T12:12:33.320Z,11.90
2017-10-25T12:13:35.843Z,12.95
2017-10-25T12:14:42.709Z,15.00
2017-10-25T12:15:47.206Z,10.85
2017-10-25T12:16:51.903Z,10.75
2017-10-25T12:18:02.728Z,12.88
2017-10-25T12:19:05.341Z,11.02
2017-10-25T12:20:08.157Z,10.02
2017-10-25T12:21:10.710Z,11.68
2017-10-25T12:22:14.761Z,12.82
2017-10-25T12:23:18.098Z,16.62
2017-10-25T12:24:20.741Z,13.95
2017-10-25T12:25:23.402Z,11.02
2017-10-25T12:26:27.440Z,16.05
2017-10-25T12:27:31.512Z,15.90
2017-10-25T12:28:34.021Z,11.10
2017-10-25T12:29:39.035Z,12.50
2017-10-25T12:30:42.241Z,11.45
2017-10-25T12:31:45.814Z,11.25
2017-10-25T12:32:49.436Z,11.75
2017-10-25T12:33:56.740Z,18.08
2017-10-25T12:34:59.374Z,11.15
2017-10-25T12:36:04.299Z,10.63
2017-10-25T12:37:07.507Z,15.63
2017-10-25T12:38:10.458Z,11.88
2017-10-25T12:39:13.763Z,15.95
2017-10-25T12:40:17.693Z,15.77
2017-10-25T12:41:20.667Z,11.12
2017-10-25T12:42:23.399Z,13.25
2017-10-25T12:43:25.916Z,11.30
2017-10-25T12:44:29.370Z,12.20
2017-10-25T12:45:32.017Z,14.48
2017-10-25T12:46:38.002Z,13.05
2017-10-25T12:47:41.976Z,15.48
2017-10-25T12:48:45.972Z,14.02
2017-10-25T12:49:49.459Z,12.18
2017-10-25T12:50:54.732Z,12.30
2017-10-25T12:51:57.649Z,12.85
2017-10-25T12:53:04.271Z,15.45
2017-10-25T12:54:11.545Z,10.75
2017-10-25T12:55:15.619Z,11.55
2017-10-25T12:56:19.537Z,10.95
2017-10-25T12:57:23.704Z,10.68
2017-10-25T12:58:29.111Z,10.75
2017-10-25T12:59:32.048Z,13.02
2017-10-25T13:00:35.412Z,20.98
2017-10-25T13:01:38.275Z,18.02
2017-10-25T13:02:41.124Z,13.68
2017-10-25T13:03:43.755Z,17.27
2017-10-25T13:04:47.076Z,14.38
2017-10-25T13:05:49.731Z,10.80
2017-10-25T13:06:52.280Z,14.02
2017-10-25T13:07:55.805Z,13.13
2017-10-25T13:08:58.387Z,19.42
2017-10-25T13:10:01.003Z,17.15
2017-10-25T13:11:18.833Z,17.40
2017-10-25T13:14:16.627Z,20.83
2017-10-25T13:15:36.421Z,12.73
2017-10-25T13:16:40.855Z,16.48
2017-10-25T13:17:59.920Z,15.30
2017-10-25T13:19:03.194Z,24.87
2017-10-25T13:20:06.774Z,20.20
2017-10-25T13:21:09.319Z,16.50
2017-10-25T13:22:12.026Z,22.85
2017-10-25T13:23:15.555Z,16.58
2017-10-25T13:24:18.256Z,12.37
2017-10-25T13:25:20.883Z,18.10
2017-10-25T13:26:23.702Z,18.08
2017-10-25T13:27:26.467Z,15.73
2017-10-25T13:28:29.430Z,19.27
2017-10-25T13:29:32.031Z,14.73
2017-10-25T13:30:35.690Z,14.68
2017-10-25T13:31:38.367Z,23.20
2017-10-25T13:32:41.051Z,22.30
2017-10-25T13:33:43.680Z,20.23
2017-10-25T13:34:46.196Z,14.98
2017-10-25T13:35:48.831Z,16.37
2017-10-25T13:36:51.562Z,17.90
2017-10-25T13:37:57.089Z,14.98
2017-10-25T13:39:03.689Z,21.48
2017-10-25T13:40:06.882Z,16.55
2017-10-25T13:41:12.877Z,20.15
2017-10-25T13:42:16.152Z,14.60
2017-10-25T13:43:19.557Z,17.25
2017-10-25T13:44:23.505Z,16.42
2017-10-25T13:45:26.135Z,15.57
2017-10-25T13:46:29.405Z,28.02
2017-10-25T13:47:32.893Z,19.48
2017-10-25T13:48:36.263Z,18.77